sensor_id;sensor_type;location;lat;lon;timestamp;temperature;humidity
9450;DHT22;4763;48.370;10.874;2023-01-08T00:01:26;2.50;99.90
9450;DHT22;4763;48.370;10.874;2023-01-08T00:03:53;2.40;99.90
9450;DHT22;4763;48.370;10.874;2023-01-08T00:06:20;2.40;99.90
9450;DHT22;4763;48.370;10.874;2023-01-08T00:08:48;2.40;99.90
9450;DHT22;4763;48.370;10.874;2023-01-08T00:11:16;2.30;99.90
9450;DHT22;4763;48.370;10.874;2023-01-08T00:13:46;2.30;99.90
9450;DHT22;4763;48.370;10.874;2023-01-08T00:16:15;2.20;99.90
9450;DHT22;4763;48.370;10.874;2023-01-08T00:18:42;2.20;99.90
9450;DHT22;4763;48.370;10.874;2023-01-08T00:21:09;2.20;99.90
9450;DHT22;4763;48.370;10.874;2023-01-08T00:23:36;2.20;99.90
9450;DHT22;4763;48.370;10.874;2023-01-08T00:26:06;2.10;99.90
9450;DHT22;4763;48.370;10.874;2023-01-08T00:28:35;2.20;99.90
9450;DHT22;4763;48.370;10.874;2023-01-08T00:31:02;2.20;99.90
9450;DHT22;4763;48.370;10.874;2023-01-08T00:33:29;2.10;99.90
9450;DHT22;4763;48.370;10.874;2023-01-08T00:35:56;2.10;99.90
9450;DHT22;4763;48.370;10.874;2023-01-08T00:38:24;2.10;99.90
9450;DHT22;4763;48.370;10.874;2023-01-08T00:40:54;2.10;99.90
9450;DHT22;4763;48.370;10.874;2023-01-08T00:43:22;2.00;99.90
9450;DHT22;4763;48.370;10.874;2023-01-08T00:45:49;2.10;99.90
9450;DHT22;4763;48.370;10.874;2023-01-08T00:48:18;2.10;99.90
9450;DHT22;4763;48.370;10.874;2023-01-08T00:50:46;2.00;99.90
9450;DHT22;4763;48.370;10.874;2023-01-08T00:53:13;2.00;99.90
9450;DHT22;4763;48.370;10.874;2023-01-08T00:55:40;2.10;99.90
9450;DHT22;4763;48.370;10.874;2023-01-08T00:58:10;2.10;99.90
9450;DHT22;4763;48.370;10.874;2023-01-08T01:00:38;2.10;99.90
9450;DHT22;4763;48.370;10.874;2023-01-08T01:03:05;2.10;99.90
9450;DHT22;4763;48.370;10.874;2023-01-08T01:05:32;2.10;99.90
9450;DHT22;4763;48.370;10.874;2023-01-08T01:07:59;2.10;99.90
9450;DHT22;4763;48.370;10.874;2023-01-08T01:10:26;2.20;99.90
9450;DHT22;4763;48.370;10.874;2023-01-08T01:13:02;2.20;99.90
9450;DHT22;4763;48.370;10.874;2023-01-08T01:15:29;2.20;99.90
9450;DHT22;4763;48.370;10.874;2023-01-08T01:17:57;2.30;99.90
9450;DHT22;4763;48.370;10.874;2023-01-08T01:20:24;2.30;99.90
9450;DHT22;4763;48.370;10.874;2023-01-08T01:22:51;2.20;99.90
9450;DHT22;4763;48.370;10.874;2023-01-08T01:25:18;2.30;99.90
9450;DHT22;4763;48.370;10.874;2023-01-08T01:27:48;2.30;99.90
9450;DHT22;4763;48.370;10.874;2023-01-08T01:30:15;2.20;99.90
9450;DHT22;4763;48.370;10.874;2023-01-08T01:32:42;2.30;99.90
9450;DHT22;4763;48.370;10.874;2023-01-08T01:35:10;2.20;99.90
9450;DHT22;4763;48.370;10.874;2023-01-08T01:37:37;2.20;99.90
9450;DHT22;4763;48.370;10.874;2023-01-08T01:40:05;2.20;99.90
9450;DHT22;4763;48.370;10.874;2023-01-08T01:42:32;2.20;99.90
9450;DHT22;4763;48.370;10.874;2023-01-08T01:45:18;2.20;99.90
9450;DHT22;4763;48.370;10.874;2023-01-08T01:47:47;2.10;99.90
9450;DHT22;4763;48.370;10.874;2023-01-08T01:50:19;2.10;99.90
9450;DHT22;4763;48.370;10.874;2023-01-08T01:52:51;2.30;99.90
9450;DHT22;4763;48.370;10.874;2023-01-08T01:55:19;2.20;99.90
9450;DHT22;4763;48.370;10.874;2023-01-08T01:57:50;2.20;99.90
9450;DHT22;4763;48.370;10.874;2023-01-08T02:00:18;2.10;99.90
9450;DHT22;4763;48.370;10.874;2023-01-08T02:02:46;2.10;99.90
9450;DHT22;4763;48.370;10.874;2023-01-08T02:05:13;2.00;99.90
9450;DHT22;4763;48.370;10.874;2023-01-08T02:07:46;2.10;99.90
9450;DHT22;4763;48.370;10.874;2023-01-08T02:10:19;2.10;99.90
9450;DHT22;4763;48.370;10.874;2023-01-08T02:12:52;2.10;99.90
9450;DHT22;4763;48.370;10.874;2023-01-08T02:15:26;2.10;99.90
9450;DHT22;4763;48.370;10.874;2023-01-08T02:18:03;2.00;99.90
9450;DHT22;4763;48.370;10.874;2023-01-08T02:20:35;2.00;99.90
9450;DHT22;4763;48.370;10.874;2023-01-08T02:23:14;2.20;99.90
9450;DHT22;4763;48.370;10.874;2023-01-08T02:26:03;2.10;99.90
9450;DHT22;4763;48.370;10.874;2023-01-08T02:28:35;2.00;99.90
9450;DHT22;4763;48.370;10.874;2023-01-08T02:31:05;2.00;99.90
9450;DHT22;4763;48.370;10.874;2023-01-08T02:33:32;2.00;99.90
9450;DHT22;4763;48.370;10.874;2023-01-08T02:36:34;2.00;99.90
9450;DHT22;4763;48.370;10.874;2023-01-08T02:39:26;2.00;99.90
9450;DHT22;4763;48.370;10.874;2023-01-08T02:42:05;2.00;99.90
9450;DHT22;4763;48.370;10.874;2023-01-08T02:44:58;1.90;99.90
9450;DHT22;4763;48.370;10.874;2023-01-08T02:47:30;1.90;99.90
9450;DHT22;4763;48.370;10.874;2023-01-08T02:50:13;2.00;99.90
9450;DHT22;4763;48.370;10.874;2023-01-08T02:52:46;2.10;99.90
9450;DHT22;4763;48.370;10.874;2023-01-08T02:55:15;2.00;99.90
9450;DHT22;4763;48.370;10.874;2023-01-08T02:57:44;2.00;99.90
9450;DHT22;4763;48.370;10.874;2023-01-08T03:00:13;1.90;99.90
9450;DHT22;4763;48.370;10.874;2023-01-08T03:02:40;2.00;99.90
9450;DHT22;4763;48.370;10.874;2023-01-08T03:05:13;2.10;99.90
9450;DHT22;4763;48.370;10.874;2023-01-08T03:07:42;2.00;99.90
9450;DHT22;4763;48.370;10.874;2023-01-08T03:10:09;2.10;99.90
9450;DHT22;4763;48.370;10.874;2023-01-08T03:12:50;2.00;99.90
9450;DHT22;4763;48.370;10.874;2023-01-08T03:15:23;2.00;99.90
9450;DHT22;4763;48.370;10.874;2023-01-08T03:17:54;1.90;99.90
9450;DHT22;4763;48.370;10.874;2023-01-08T03:20:26;1.90;99.90
9450;DHT22;4763;48.370;10.874;2023-01-08T03:22:55;1.90;99.90
9450;DHT22;4763;48.370;10.874;2023-01-08T03:25:24;1.90;99.90
9450;DHT22;4763;48.370;10.874;2023-01-08T03:27:57;1.80;99.90
9450;DHT22;4763;48.370;10.874;2023-01-08T03:30:26;1.80;99.90
9450;DHT22;4763;48.370;10.874;2023-01-08T03:32:57;1.80;99.90
9450;DHT22;4763;48.370;10.874;2023-01-08T03:35:25;1.80;99.90
9450;DHT22;4763;48.370;10.874;2023-01-08T03:37:55;1.80;99.90
9450;DHT22;4763;48.370;10.874;2023-01-08T03:40:26;1.70;99.90
9450;DHT22;4763;48.370;10.874;2023-01-08T03:42:55;1.70;99.90
9450;DHT22;4763;48.370;10.874;2023-01-08T03:45:23;1.70;99.90
9450;DHT22;4763;48.370;10.874;2023-01-08T03:47:52;1.70;99.90
9450;DHT22;4763;48.370;10.874;2023-01-08T03:50:22;1.80;99.90
9450;DHT22;4763;48.370;10.874;2023-01-08T03:52:50;1.70;99.90
9450;DHT22;4763;48.370;10.874;2023-01-08T03:55:17;1.70;99.90
9450;DHT22;4763;48.370;10.874;2023-01-08T03:57:44;1.70;99.90
9450;DHT22;4763;48.370;10.874;2023-01-08T04:00:13;1.70;99.90
9450;DHT22;4763;48.370;10.874;2023-01-08T04:02:40;1.70;99.90
9450;DHT22;4763;48.370;10.874;2023-01-08T04:05:07;1.70;99.90
9450;DHT22;4763;48.370;10.874;2023-01-08T04:07:34;1.70;99.90
9450;DHT22;4763;48.370;10.874;2023-01-08T04:10:01;1.70;99.90
9450;DHT22;4763;48.370;10.874;2023-01-08T04:12:28;1.70;99.90
9450;DHT22;4763;48.370;10.874;2023-01-08T04:14:54;1.70;99.90
9450;DHT22;4763;48.370;10.874;2023-01-08T04:17:22;1.70;99.90
9450;DHT22;4763;48.370;10.874;2023-01-08T04:19:49;1.80;99.90
9450;DHT22;4763;48.370;10.874;2023-01-08T04:22:16;1.80;99.90
9450;DHT22;4763;48.370;10.874;2023-01-08T04:24:42;1.80;99.90
9450;DHT22;4763;48.370;10.874;2023-01-08T04:27:09;2.00;99.90
9450;DHT22;4763;48.370;10.874;2023-01-08T04:29:36;1.90;99.90
9450;DHT22;4763;48.370;10.874;2023-01-08T04:32:03;1.90;99.90
9450;DHT22;4763;48.370;10.874;2023-01-08T04:34:31;2.00;99.90
9450;DHT22;4763;48.370;10.874;2023-01-08T04:36:58;1.90;99.90
9450;DHT22;4763;48.370;10.874;2023-01-08T04:39:25;1.90;99.90
9450;DHT22;4763;48.370;10.874;2023-01-08T04:41:51;1.90;99.90
9450;DHT22;4763;48.370;10.874;2023-01-08T04:44:18;1.90;99.90
9450;DHT22;4763;48.370;10.874;2023-01-08T04:46:45;1.80;99.90
9450;DHT22;4763;48.370;10.874;2023-01-08T04:49:12;1.90;99.90
9450;DHT22;4763;48.370;10.874;2023-01-08T04:51:41;1.90;99.90
9450;DHT22;4763;48.370;10.874;2023-01-08T04:54:08;1.90;99.90
9450;DHT22;4763;48.370;10.874;2023-01-08T04:56:34;1.80;99.90
9450;DHT22;4763;48.370;10.874;2023-01-08T04:59:01;1.80;99.90
9450;DHT22;4763;48.370;10.874;2023-01-08T05:01:28;1.90;99.90
9450;DHT22;4763;48.370;10.874;2023-01-08T05:03:57;1.90;99.90
9450;DHT22;4763;48.370;10.874;2023-01-08T05:06:24;1.90;99.90
9450;DHT22;4763;48.370;10.874;2023-01-08T05:08:52;1.90;99.90
9450;DHT22;4763;48.370;10.874;2023-01-08T05:11:19;1.90;99.90
9450;DHT22;4763;48.370;10.874;2023-01-08T05:13:46;1.90;99.90
9450;DHT22;4763;48.370;10.874;2023-01-08T05:16:13;1.90;99.90
9450;DHT22;4763;48.370;10.874;2023-01-08T05:18:40;1.90;99.90
9450;DHT22;4763;48.370;10.874;2023-01-08T05:21:07;1.90;99.90
9450;DHT22;4763;48.370;10.874;2023-01-08T05:23:34;1.90;99.90
9450;DHT22;4763;48.370;10.874;2023-01-08T05:26:04;1.90;99.90
9450;DHT22;4763;48.370;10.874;2023-01-08T05:28:31;1.90;99.90
9450;DHT22;4763;48.370;10.874;2023-01-08T05:30:58;1.90;99.90
9450;DHT22;4763;48.370;10.874;2023-01-08T05:33:25;2.00;99.90
9450;DHT22;4763;48.370;10.874;2023-01-08T05:35:52;1.90;99.90
9450;DHT22;4763;48.370;10.874;2023-01-08T05:38:19;1.90;99.90
9450;DHT22;4763;48.370;10.874;2023-01-08T05:40:46;1.90;99.90
9450;DHT22;4763;48.370;10.874;2023-01-08T05:43:14;1.90;99.90
9450;DHT22;4763;48.370;10.874;2023-01-08T05:45:41;1.90;99.90
9450;DHT22;4763;48.370;10.874;2023-01-08T05:48:08;1.90;99.90
9450;DHT22;4763;48.370;10.874;2023-01-08T05:50:35;1.90;99.90
9450;DHT22;4763;48.370;10.874;2023-01-08T05:53:05;1.80;99.90
9450;DHT22;4763;48.370;10.874;2023-01-08T05:55:33;1.90;99.90
9450;DHT22;4763;48.370;10.874;2023-01-08T05:58:00;1.90;99.90
9450;DHT22;4763;48.370;10.874;2023-01-08T06:00:29;1.90;99.90
9450;DHT22;4763;48.370;10.874;2023-01-08T06:02:56;1.90;99.90
9450;DHT22;4763;48.370;10.874;2023-01-08T06:05:22;1.90;99.90
9450;DHT22;4763;48.370;10.874;2023-01-08T06:07:49;1.90;99.90
9450;DHT22;4763;48.370;10.874;2023-01-08T06:10:16;1.90;99.90
9450;DHT22;4763;48.370;10.874;2023-01-08T06:12:43;2.00;99.90
9450;DHT22;4763;48.370;10.874;2023-01-08T06:15:10;2.00;99.90
9450;DHT22;4763;48.370;10.874;2023-01-08T06:17:39;1.90;99.90
9450;DHT22;4763;48.370;10.874;2023-01-08T06:20:07;2.00;99.90
9450;DHT22;4763;48.370;10.874;2023-01-08T06:22:34;1.90;99.90
9450;DHT22;4763;48.370;10.874;2023-01-08T06:25:01;1.90;99.90
9450;DHT22;4763;48.370;10.874;2023-01-08T06:27:28;2.00;99.90
9450;DHT22;4763;48.370;10.874;2023-01-08T06:29:55;2.00;99.90
9450;DHT22;4763;48.370;10.874;2023-01-08T06:32:22;2.00;99.90
9450;DHT22;4763;48.370;10.874;2023-01-08T06:34:50;2.00;99.90
9450;DHT22;4763;48.370;10.874;2023-01-08T06:37:17;2.00;99.90
9450;DHT22;4763;48.370;10.874;2023-01-08T06:39:44;2.00;99.90
9450;DHT22;4763;48.370;10.874;2023-01-08T06:42:11;2.00;99.90
9450;DHT22;4763;48.370;10.874;2023-01-08T06:44:37;2.10;99.90
9450;DHT22;4763;48.370;10.874;2023-01-08T06:47:04;2.10;99.90
9450;DHT22;4763;48.370;10.874;2023-01-08T06:49:31;2.10;99.90
9450;DHT22;4763;48.370;10.874;2023-01-08T06:51:59;2.10;99.90
9450;DHT22;4763;48.370;10.874;2023-01-08T06:54:26;2.10;99.90
9450;DHT22;4763;48.370;10.874;2023-01-08T06:56:53;2.10;99.90
9450;DHT22;4763;48.370;10.874;2023-01-08T06:59:20;2.20;99.90
9450;DHT22;4763;48.370;10.874;2023-01-08T07:01:47;2.10;99.90
9450;DHT22;4763;48.370;10.874;2023-01-08T07:04:14;2.20;99.90
9450;DHT22;4763;48.370;10.874;2023-01-08T07:06:40;2.20;99.90
9450;DHT22;4763;48.370;10.874;2023-01-08T07:09:11;2.20;99.90
9450;DHT22;4763;48.370;10.874;2023-01-08T07:11:38;2.20;99.90
9450;DHT22;4763;48.370;10.874;2023-01-08T07:14:04;2.20;99.90
9450;DHT22;4763;48.370;10.874;2023-01-08T07:16:31;2.30;99.90
9450;DHT22;4763;48.370;10.874;2023-01-08T07:18:58;2.30;99.90
9450;DHT22;4763;48.370;10.874;2023-01-08T07:21:25;2.30;99.90
9450;DHT22;4763;48.370;10.874;2023-01-08T07:23:52;2.30;99.90
9450;DHT22;4763;48.370;10.874;2023-01-08T07:26:20;2.30;99.90
9450;DHT22;4763;48.370;10.874;2023-01-08T07:28:46;2.40;99.90
9450;DHT22;4763;48.370;10.874;2023-01-08T07:31:13;2.30;99.90
9450;DHT22;4763;48.370;10.874;2023-01-08T07:33:40;2.30;99.90
9450;DHT22;4763;48.370;10.874;2023-01-08T07:36:07;2.40;99.90
9450;DHT22;4763;48.370;10.874;2023-01-08T07:38:34;2.40;99.90
9450;DHT22;4763;48.370;10.874;2023-01-08T07:41:01;2.40;99.90
9450;DHT22;4763;48.370;10.874;2023-01-08T07:43:30;2.50;99.90
9450;DHT22;4763;48.370;10.874;2023-01-08T07:45:57;2.60;99.90
9450;DHT22;4763;48.370;10.874;2023-01-08T07:48:23;2.60;99.90
9450;DHT22;4763;48.370;10.874;2023-01-08T07:50:50;2.60;99.90
9450;DHT22;4763;48.370;10.874;2023-01-08T07:53:17;2.60;99.90
9450;DHT22;4763;48.370;10.874;2023-01-08T07:55:44;2.60;99.90
9450;DHT22;4763;48.370;10.874;2023-01-08T07:58:13;2.60;99.90
9450;DHT22;4763;48.370;10.874;2023-01-08T08:00:41;2.60;99.90
9450;DHT22;4763;48.370;10.874;2023-01-08T08:03:09;2.70;99.90
9450;DHT22;4763;48.370;10.874;2023-01-08T08:05:36;2.70;99.90
9450;DHT22;4763;48.370;10.874;2023-01-08T08:08:07;2.70;99.90
9450;DHT22;4763;48.370;10.874;2023-01-08T08:10:34;2.70;99.90
9450;DHT22;4763;48.370;10.874;2023-01-08T08:13:00;2.70;99.90
9450;DHT22;4763;48.370;10.874;2023-01-08T08:15:27;2.70;99.90
9450;DHT22;4763;48.370;10.874;2023-01-08T08:17:56;2.80;99.90
9450;DHT22;4763;48.370;10.874;2023-01-08T08:20:22;2.90;99.90
9450;DHT22;4763;48.370;10.874;2023-01-08T08:22:49;3.00;99.90
9450;DHT22;4763;48.370;10.874;2023-01-08T08:25:16;3.10;99.90
9450;DHT22;4763;48.370;10.874;2023-01-08T08:27:44;3.00;99.90
9450;DHT22;4763;48.370;10.874;2023-01-08T08:30:12;3.10;99.90
9450;DHT22;4763;48.370;10.874;2023-01-08T08:32:39;3.10;99.90
9450;DHT22;4763;48.370;10.874;2023-01-08T08:35:08;3.20;99.90
9450;DHT22;4763;48.370;10.874;2023-01-08T08:37:34;3.20;99.90
9450;DHT22;4763;48.370;10.874;2023-01-08T08:40:01;3.30;99.90
9450;DHT22;4763;48.370;10.874;2023-01-08T08:42:28;3.50;99.90
9450;DHT22;4763;48.370;10.874;2023-01-08T08:44:55;3.50;99.90
9450;DHT22;4763;48.370;10.874;2023-01-08T08:47:21;3.60;99.90
9450;DHT22;4763;48.370;10.874;2023-01-08T08:49:48;3.70;99.90
9450;DHT22;4763;48.370;10.874;2023-01-08T08:52:17;3.70;99.90
9450;DHT22;4763;48.370;10.874;2023-01-08T08:54:44;3.80;99.90
9450;DHT22;4763;48.370;10.874;2023-01-08T08:57:11;3.80;99.90
9450;DHT22;4763;48.370;10.874;2023-01-08T08:59:38;3.90;99.90
9450;DHT22;4763;48.370;10.874;2023-01-08T09:02:05;3.90;99.90
9450;DHT22;4763;48.370;10.874;2023-01-08T09:04:32;3.80;99.90
9450;DHT22;4763;48.370;10.874;2023-01-08T09:06:59;3.90;99.90
9450;DHT22;4763;48.370;10.874;2023-01-08T09:09:28;3.90;99.90
9450;DHT22;4763;48.370;10.874;2023-01-08T09:11:55;3.90;99.90
9450;DHT22;4763;48.370;10.874;2023-01-08T09:14:22;4.00;99.90
9450;DHT22;4763;48.370;10.874;2023-01-08T09:16:49;4.00;99.90
9450;DHT22;4763;48.370;10.874;2023-01-08T09:19:16;4.00;99.90
9450;DHT22;4763;48.370;10.874;2023-01-08T09:21:43;4.10;99.90
9450;DHT22;4763;48.370;10.874;2023-01-08T09:24:10;4.20;99.90
9450;DHT22;4763;48.370;10.874;2023-01-08T09:26:38;4.30;99.90
9450;DHT22;4763;48.370;10.874;2023-01-08T09:29:05;4.30;99.90
9450;DHT22;4763;48.370;10.874;2023-01-08T09:31:33;4.30;99.90
9450;DHT22;4763;48.370;10.874;2023-01-08T09:33:59;4.40;99.90
9450;DHT22;4763;48.370;10.874;2023-01-08T09:36:26;4.50;99.90
9450;DHT22;4763;48.370;10.874;2023-01-08T09:38:53;4.50;99.90
9450;DHT22;4763;48.370;10.874;2023-01-08T09:41:23;4.60;99.90
9450;DHT22;4763;48.370;10.874;2023-01-08T09:43:54;4.60;99.90
9450;DHT22;4763;48.370;10.874;2023-01-08T09:46:25;4.80;99.90
9450;DHT22;4763;48.370;10.874;2023-01-08T09:48:53;4.90;99.90
9450;DHT22;4763;48.370;10.874;2023-01-08T09:51:20;4.90;99.90
9450;DHT22;4763;48.370;10.874;2023-01-08T09:53:54;5.10;99.90
9450;DHT22;4763;48.370;10.874;2023-01-08T09:56:21;5.20;99.90
9450;DHT22;4763;48.370;10.874;2023-01-08T09:58:50;5.30;99.90
9450;DHT22;4763;48.370;10.874;2023-01-08T10:01:20;5.30;99.90
9450;DHT22;4763;48.370;10.874;2023-01-08T10:03:50;5.40;99.90
9450;DHT22;4763;48.370;10.874;2023-01-08T10:06:18;5.50;99.90
9450;DHT22;4763;48.370;10.874;2023-01-08T10:08:45;5.50;99.90
9450;DHT22;4763;48.370;10.874;2023-01-08T10:11:12;5.60;99.90
9450;DHT22;4763;48.370;10.874;2023-01-08T10:13:42;5.70;99.90
9450;DHT22;4763;48.370;10.874;2023-01-08T10:16:20;5.70;99.90
9450;DHT22;4763;48.370;10.874;2023-01-08T10:18:48;5.80;99.90
9450;DHT22;4763;48.370;10.874;2023-01-08T10:21:15;5.80;99.90
9450;DHT22;4763;48.370;10.874;2023-01-08T10:23:50;5.70;99.90
9450;DHT22;4763;48.370;10.874;2023-01-08T10:26:27;5.70;99.90
9450;DHT22;4763;48.370;10.874;2023-01-08T10:29:10;5.70;99.90
9450;DHT22;4763;48.370;10.874;2023-01-08T10:31:44;5.80;99.90
9450;DHT22;4763;48.370;10.874;2023-01-08T10:34:21;5.90;99.90
9450;DHT22;4763;48.370;10.874;2023-01-08T10:36:49;5.80;99.90
9450;DHT22;4763;48.370;10.874;2023-01-08T10:39:21;5.80;99.90
9450;DHT22;4763;48.370;10.874;2023-01-08T10:41:50;5.90;99.90
9450;DHT22;4763;48.370;10.874;2023-01-08T10:44:19;5.90;99.90
9450;DHT22;4763;48.370;10.874;2023-01-08T10:46:51;5.90;99.90
9450;DHT22;4763;48.370;10.874;2023-01-08T10:49:26;5.90;99.90
9450;DHT22;4763;48.370;10.874;2023-01-08T10:51:55;6.00;99.90
9450;DHT22;4763;48.370;10.874;2023-01-08T10:54:30;6.10;99.90
9450;DHT22;4763;48.370;10.874;2023-01-08T10:56:57;6.10;99.90
9450;DHT22;4763;48.370;10.874;2023-01-08T10:59:24;6.20;99.90
9450;DHT22;4763;48.370;10.874;2023-01-08T11:01:54;6.20;99.90
9450;DHT22;4763;48.370;10.874;2023-01-08T11:04:25;6.30;99.90
9450;DHT22;4763;48.370;10.874;2023-01-08T11:06:53;6.30;99.90
9450;DHT22;4763;48.370;10.874;2023-01-08T11:09:27;6.40;99.90
9450;DHT22;4763;48.370;10.874;2023-01-08T11:11:55;6.40;99.90
9450;DHT22;4763;48.370;10.874;2023-01-08T11:14:24;6.50;99.90
9450;DHT22;4763;48.370;10.874;2023-01-08T11:16:54;6.50;99.90
9450;DHT22;4763;48.370;10.874;2023-01-08T11:19:23;6.60;99.90
9450;DHT22;4763;48.370;10.874;2023-01-08T11:21:55;6.60;99.90
9450;DHT22;4763;48.370;10.874;2023-01-08T11:24:24;6.70;99.90
9450;DHT22;4763;48.370;10.874;2023-01-08T11:26:53;6.70;99.90
9450;DHT22;4763;48.370;10.874;2023-01-08T11:29:23;6.70;99.90
9450;DHT22;4763;48.370;10.874;2023-01-08T11:32:00;6.70;99.90
9450;DHT22;4763;48.370;10.874;2023-01-08T11:34:33;6.70;99.90
9450;DHT22;4763;48.370;10.874;2023-01-08T11:37:07;6.80;99.90
9450;DHT22;4763;48.370;10.874;2023-01-08T11:39:36;6.80;99.90
9450;DHT22;4763;48.370;10.874;2023-01-08T11:42:18;6.80;99.90
9450;DHT22;4763;48.370;10.874;2023-01-08T11:44:54;6.90;99.90
9450;DHT22;4763;48.370;10.874;2023-01-08T11:47:39;6.90;99.90
9450;DHT22;4763;48.370;10.874;2023-01-08T11:50:18;6.90;99.90
9450;DHT22;4763;48.370;10.874;2023-01-08T11:52:54;6.90;99.90
9450;DHT22;4763;48.370;10.874;2023-01-08T11:55:34;6.90;99.90
9450;DHT22;4763;48.370;10.874;2023-01-08T11:58:21;6.90;99.90
9450;DHT22;4763;48.370;10.874;2023-01-08T12:01:10;6.90;99.90
9450;DHT22;4763;48.370;10.874;2023-01-08T12:03:46;7.00;99.90
9450;DHT22;4763;48.370;10.874;2023-01-08T12:06:27;7.00;99.90
9450;DHT22;4763;48.370;10.874;2023-01-08T12:09:08;7.00;99.90
9450;DHT22;4763;48.370;10.874;2023-01-08T12:11:39;7.00;99.90
9450;DHT22;4763;48.370;10.874;2023-01-08T12:14:32;7.00;99.90
9450;DHT22;4763;48.370;10.874;2023-01-08T12:17:18;7.00;99.90
9450;DHT22;4763;48.370;10.874;2023-01-08T12:20:00;7.00;99.90
9450;DHT22;4763;48.370;10.874;2023-01-08T12:22:37;7.00;99.90
9450;DHT22;4763;48.370;10.874;2023-01-08T12:25:29;7.10;99.90
9450;DHT22;4763;48.370;10.874;2023-01-08T12:31:13;7.00;99.90
9450;DHT22;4763;48.370;10.874;2023-01-08T12:33:45;7.10;99.90
9450;DHT22;4763;48.370;10.874;2023-01-08T12:36:17;7.10;99.90
9450;DHT22;4763;48.370;10.874;2023-01-08T12:38:51;7.10;99.90
9450;DHT22;4763;48.370;10.874;2023-01-08T12:41:19;7.10;99.90
9450;DHT22;4763;48.370;10.874;2023-01-08T12:43:51;7.10;99.90
9450;DHT22;4763;48.370;10.874;2023-01-08T12:46:20;7.10;99.90
9450;DHT22;4763;48.370;10.874;2023-01-08T12:48:49;7.10;99.90
9450;DHT22;4763;48.370;10.874;2023-01-08T12:51:25;7.10;99.90
9450;DHT22;4763;48.370;10.874;2023-01-08T12:53:57;7.10;99.90
9450;DHT22;4763;48.370;10.874;2023-01-08T12:56:35;7.10;99.90
9450;DHT22;4763;48.370;10.874;2023-01-08T12:59:13;7.20;99.90
9450;DHT22;4763;48.370;10.874;2023-01-08T13:01:48;7.20;99.90
9450;DHT22;4763;48.370;10.874;2023-01-08T13:04:16;7.20;99.90
9450;DHT22;4763;48.370;10.874;2023-01-08T13:06:55;7.30;99.90
9450;DHT22;4763;48.370;10.874;2023-01-08T13:09:24;7.20;99.90
9450;DHT22;4763;48.370;10.874;2023-01-08T13:11:53;7.20;99.90
9450;DHT22;4763;48.370;10.874;2023-01-08T13:14:21;7.20;99.90
9450;DHT22;4763;48.370;10.874;2023-01-08T13:17:01;7.20;99.90
9450;DHT22;4763;48.370;10.874;2023-01-08T13:19:32;7.20;99.90
9450;DHT22;4763;48.370;10.874;2023-01-08T13:22:02;7.20;99.90
9450;DHT22;4763;48.370;10.874;2023-01-08T13:24:30;7.10;99.90
9450;DHT22;4763;48.370;10.874;2023-01-08T13:27:10;7.10;99.90
9450;DHT22;4763;48.370;10.874;2023-01-08T13:29:39;7.20;99.90
9450;DHT22;4763;48.370;10.874;2023-01-08T13:35:22;7.10;99.90
9450;DHT22;4763;48.370;10.874;2023-01-08T13:38:03;7.10;99.90
9450;DHT22;4763;48.370;10.874;2023-01-08T13:40:39;7.10;99.90
9450;DHT22;4763;48.370;10.874;2023-01-08T13:43:19;7.00;99.90
9450;DHT22;4763;48.370;10.874;2023-01-08T13:45:53;7.00;99.90
9450;DHT22;4763;48.370;10.874;2023-01-08T13:48:33;7.00;99.90
9450;DHT22;4763;48.370;10.874;2023-01-08T13:51:00;7.00;99.90
9450;DHT22;4763;48.370;10.874;2023-01-08T13:53:29;7.00;99.90
9450;DHT22;4763;48.370;10.874;2023-01-08T13:55:58;7.00;99.90
9450;DHT22;4763;48.370;10.874;2023-01-08T13:58:27;7.00;99.90
9450;DHT22;4763;48.370;10.874;2023-01-08T14:00:56;7.00;99.90
9450;DHT22;4763;48.370;10.874;2023-01-08T14:03:25;7.00;99.90
9450;DHT22;4763;48.370;10.874;2023-01-08T14:06:03;7.00;99.90
9450;DHT22;4763;48.370;10.874;2023-01-08T14:08:31;7.00;99.90
9450;DHT22;4763;48.370;10.874;2023-01-08T14:10:58;7.00;99.90
9450;DHT22;4763;48.370;10.874;2023-01-08T14:13:27;6.90;99.90
9450;DHT22;4763;48.370;10.874;2023-01-08T14:15:57;7.00;99.90
9450;DHT22;4763;48.370;10.874;2023-01-08T14:18:26;6.90;99.90
9450;DHT22;4763;48.370;10.874;2023-01-08T14:20:53;6.90;99.90
9450;DHT22;4763;48.370;10.874;2023-01-08T14:23:24;6.90;99.90
9450;DHT22;4763;48.370;10.874;2023-01-08T14:25:53;6.90;99.90
9450;DHT22;4763;48.370;10.874;2023-01-08T14:28:21;6.90;99.90
9450;DHT22;4763;48.370;10.874;2023-01-08T14:30:49;6.90;99.90
9450;DHT22;4763;48.370;10.874;2023-01-08T14:33:16;6.90;99.90
9450;DHT22;4763;48.370;10.874;2023-01-08T14:35:44;6.90;99.90
9450;DHT22;4763;48.370;10.874;2023-01-08T14:38:12;6.80;99.90
9450;DHT22;4763;48.370;10.874;2023-01-08T14:40:43;6.80;99.90
9450;DHT22;4763;48.370;10.874;2023-01-08T14:43:14;6.80;99.90
9450;DHT22;4763;48.370;10.874;2023-01-08T14:45:45;6.80;99.90
9450;DHT22;4763;48.370;10.874;2023-01-08T14:48:18;6.80;99.90
9450;DHT22;4763;48.370;10.874;2023-01-08T14:50:58;6.80;99.90
9450;DHT22;4763;48.370;10.874;2023-01-08T14:53:28;6.80;99.90
9450;DHT22;4763;48.370;10.874;2023-01-08T14:55:56;6.80;99.90
9450;DHT22;4763;48.370;10.874;2023-01-08T14:58:27;6.80;99.90
9450;DHT22;4763;48.370;10.874;2023-01-08T15:00:56;6.90;99.90
9450;DHT22;4763;48.370;10.874;2023-01-08T15:03:32;6.90;99.90
9450;DHT22;4763;48.370;10.874;2023-01-08T15:06:00;6.90;99.90
9450;DHT22;4763;48.370;10.874;2023-01-08T15:08:33;6.80;99.90
9450;DHT22;4763;48.370;10.874;2023-01-08T15:11:02;6.80;99.90
9450;DHT22;4763;48.370;10.874;2023-01-08T15:13:32;6.70;99.90
9450;DHT22;4763;48.370;10.874;2023-01-08T15:16:04;6.70;99.90
9450;DHT22;4763;48.370;10.874;2023-01-08T15:18:34;6.70;99.90
9450;DHT22;4763;48.370;10.874;2023-01-08T15:21:02;6.70;99.90
9450;DHT22;4763;48.370;10.874;2023-01-08T15:23:36;6.70;99.90
9450;DHT22;4763;48.370;10.874;2023-01-08T15:26:03;6.70;99.90
9450;DHT22;4763;48.370;10.874;2023-01-08T15:28:35;6.70;99.90
9450;DHT22;4763;48.370;10.874;2023-01-08T15:31:03;6.60;99.90
9450;DHT22;4763;48.370;10.874;2023-01-08T15:33:32;6.60;99.90
9450;DHT22;4763;48.370;10.874;2023-01-08T15:35:59;6.60;99.90
9450;DHT22;4763;48.370;10.874;2023-01-08T15:38:26;6.50;99.90
9450;DHT22;4763;48.370;10.874;2023-01-08T15:40:54;6.50;99.90
9450;DHT22;4763;48.370;10.874;2023-01-08T15:43:21;6.50;99.90
9450;DHT22;4763;48.370;10.874;2023-01-08T15:45:48;6.40;99.90
9450;DHT22;4763;48.370;10.874;2023-01-08T15:48:15;6.40;99.90
9450;DHT22;4763;48.370;10.874;2023-01-08T15:50:43;6.30;99.90
9450;DHT22;4763;48.370;10.874;2023-01-08T15:53:14;6.30;99.90
9450;DHT22;4763;48.370;10.874;2023-01-08T15:55:41;6.20;99.90
9450;DHT22;4763;48.370;10.874;2023-01-08T15:58:10;6.20;99.90
9450;DHT22;4763;48.370;10.874;2023-01-08T16:00:38;6.20;99.90
9450;DHT22;4763;48.370;10.874;2023-01-08T16:03:07;6.10;99.90
9450;DHT22;4763;48.370;10.874;2023-01-08T16:05:43;6.10;99.90
9450;DHT22;4763;48.370;10.874;2023-01-08T16:08:10;6.00;99.90
9450;DHT22;4763;48.370;10.874;2023-01-08T16:10:37;6.10;99.90
9450;DHT22;4763;48.370;10.874;2023-01-08T16:13:04;6.00;99.90
9450;DHT22;4763;48.370;10.874;2023-01-08T16:15:31;6.00;99.90
9450;DHT22;4763;48.370;10.874;2023-01-08T16:17:57;6.00;99.90
9450;DHT22;4763;48.370;10.874;2023-01-08T16:20:26;6.00;99.90
9450;DHT22;4763;48.370;10.874;2023-01-08T16:22:53;6.00;99.90
9450;DHT22;4763;48.370;10.874;2023-01-08T16:25:21;6.00;99.90